createdAt,value
2017-11-18T00:00:42.868Z,0
2017-11-18T00:01:53.072Z,0
2017-11-18T00:03:03.375Z,0
2017-11-18T00:04:13.654Z,0
2017-11-18T00:05:23.915Z,0
2017-11-18T00:06:34.133Z,0
2017-11-18T00:07:44.086Z,0
2017-11-18T00:08:54.572Z,0
2017-11-18T00:10:04.782Z,0
2017-11-18T00:11:15.012Z,0
2017-11-18T00:12:25.304Z,0
2017-11-18T00:13:35.749Z,0
2017-11-18T00:14:45.956Z,0
2017-11-18T00:15:55.700Z,0
2017-11-18T00:17:05.961Z,0
2017-11-18T00:18:16.217Z,0
2017-11-18T00:19:26.442Z,0
2017-11-18T00:20:36.744Z,0
2017-11-18T00:21:47.953Z,0
2017-11-18T00:22:57.968Z,0
2017-11-18T00:24:08.280Z,0
2017-11-18T00:25:18.576Z,0
2017-11-18T00:26:28.791Z,0
2017-11-18T00:27:39.046Z,0
2017-11-18T00:28:49.323Z,0
2017-11-18T00:29:59.548Z,0
2017-11-18T00:31:09.570Z,0
2017-11-18T00:32:19.390Z,0
2017-11-18T00:33:29.638Z,0
2017-11-18T00:34:39.858Z,0
2017-11-18T00:35:50.104Z,0
2017-11-18T00:37:00.348Z,0
2017-11-18T00:38:10.343Z,0
2017-11-18T00:39:20.586Z,0
2017-11-18T00:40:30.531Z,0
2017-11-18T00:41:40.458Z,0
2017-11-18T00:42:50.338Z,0
2017-11-18T00:44:00.810Z,0
2017-11-18T00:45:10.784Z,0
2017-11-18T00:46:21.003Z,0
2017-11-18T00:47:31.283Z,0
2017-11-18T00:48:41.530Z,0
2017-11-18T00:49:51.824Z,0
2017-11-18T00:51:01.901Z,0
2017-11-18T00:52:12.126Z,0
2017-11-18T00:53:21.757Z,0
2017-11-18T00:54:32.072Z,0
2017-11-18T00:55:42.330Z,0
2017-11-18T00:56:52.574Z,0
2017-11-18T00:58:02.854Z,0
2017-11-18T00:59:13.151Z,0
2017-11-18T01:00:22.830Z,0
2017-11-18T01:01:32.729Z,0
2017-11-18T01:02:42.716Z,0
2017-11-18T01:03:53.009Z,0
2017-11-18T01:05:03.057Z,0
2017-11-18T01:06:13.298Z,0
2017-11-18T01:07:23.580Z,0
2017-11-18T01:08:33.829Z,0
2017-11-18T01:09:43.819Z,0
2017-11-18T01:10:53.772Z,0
2017-11-18T01:12:04.045Z,0
2017-11-18T01:13:14.042Z,0
2017-11-18T01:14:23.802Z,0
2017-11-18T01:15:34.065Z,0
2017-11-18T01:16:44.282Z,0
2017-11-18T01:17:54.515Z,0
2017-11-18T01:19:05.006Z,0
2017-11-18T01:20:14.976Z,0
2017-11-18T01:21:25.377Z,0
2017-11-18T01:22:35.640Z,0
2017-11-18T01:23:45.706Z,0
2017-11-18T01:24:55.379Z,0
2017-11-18T01:26:05.613Z,0
2017-11-18T01:27:16.835Z,0
2017-11-18T01:28:26.787Z,0
2017-11-18T01:29:37.058Z,0
2017-11-18T01:30:47.048Z,0
2017-11-18T01:31:57.016Z,0
2017-11-18T01:33:07.233Z,0
2017-11-18T01:34:17.084Z,0
2017-11-18T01:35:27.387Z,0
2017-11-18T01:36:37.686Z,0
2017-11-18T01:37:47.901Z,0
2017-11-18T01:38:58.145Z,0
2017-11-18T01:40:08.148Z,0
2017-11-18T01:41:18.111Z,0
2017-11-18T01:42:28.073Z,0
2017-11-18T01:43:38.336Z,0
2017-11-18T01:44:48.792Z,0
2017-11-18T01:45:59.069Z,0
2017-11-18T01:47:09.309Z,0
2017-11-18T01:48:19.396Z,0
2017-11-18T01:49:29.643Z,0
2017-11-18T01:50:39.851Z,0
2017-11-18T01:51:50.099Z,0
2017-11-18T01:53:00.361Z,0
2017-11-18T01:54:10.590Z,0
2017-11-18T01:55:20.852Z,0
2017-11-18T01:56:30.528Z,0
2017-11-18T01:57:40.862Z,0
2017-11-18T01:58:51.063Z,0
2017-11-18T02:00:00.942Z,0
2017-11-18T02:01:11.261Z,0
2017-11-18T02:02:21.506Z,0
2017-11-18T02:03:31.710Z,0
2017-11-18T02:04:41.951Z,0
2017-11-18T02:05:51.895Z,0
2017-11-18T02:07:02.150Z,0
2017-11-18T02:08:12.577Z,0
2017-11-18T02:09:22.867Z,0
2017-11-18T02:10:32.804Z,0
2017-11-18T02:11:43.322Z,0
2017-11-18T02:12:53.564Z,0
2017-11-18T02:14:03.811Z,0
2017-11-18T02:15:13.803Z,0
2017-11-18T02:16:23.716Z,0
2017-11-18T02:17:33.937Z,0
2017-11-18T02:18:43.903Z,0
2017-11-18T02:19:54.121Z,0
2017-11-18T02:21:04.623Z,0
2017-11-18T02:22:14.321Z,0
2017-11-18T02:23:24.266Z,0
2017-11-18T02:24:34.282Z,0
2017-11-18T02:25:44.573Z,0
2017-11-18T02:26:54.537Z,0
2017-11-18T02:28:04.765Z,0
2017-11-18T02:29:14.982Z,0
2017-11-18T02:30:25.203Z,0
2017-11-18T02:31:35.061Z,0
2017-11-18T02:32:45.310Z,0
2017-11-18T02:33:55.770Z,0
2017-11-18T02:35:05.773Z,0
2017-11-18T02:36:15.638Z,0
2017-11-18T02:37:25.520Z,0
2017-11-18T02:38:35.520Z,0
2017-11-18T02:39:45.801Z,0
2017-11-18T02:40:56.081Z,0
2017-11-18T02:42:06.259Z,0
2017-11-18T02:43:16.242Z,0
2017-11-18T02:44:26.028Z,0
2017-11-18T02:45:35.625Z,0
2017-11-18T02:46:45.612Z,0
2017-11-18T02:47:55.823Z,0
2017-11-18T02:49:06.038Z,0
2017-11-18T02:50:16.009Z,0
2017-11-18T02:51:26.231Z,0
2017-11-18T02:52:36.445Z,0
2017-11-18T02:53:46.381Z,0
2017-11-18T02:54:56.626Z,0
2017-11-18T02:56:06.242Z,0
2017-11-18T02:57:16.243Z,0
2017-11-18T02:58:26.449Z,0
2017-11-18T02:59:36.523Z,0
2017-11-18T03:00:46.801Z,0
2017-11-18T03:01:56.976Z,0
2017-11-18T03:03:06.951Z,0
2017-11-18T03:04:17.201Z,0
2017-11-18T03:05:27.426Z,0
2017-11-18T03:06:37.661Z,0
2017-11-18T03:07:47.890Z,0
2017-11-18T03:08:58.125Z,0
2017-11-18T03:10:08.215Z,0
2017-11-18T03:11:18.420Z,0
2017-11-18T03:12:28.637Z,0
2017-11-18T03:13:38.870Z,0
2017-11-18T03:14:49.063Z,0
2017-11-18T03:15:59.275Z,0
2017-11-18T03:17:09.415Z,0
2017-11-18T03:18:19.346Z,0
2017-11-18T03:19:29.024Z,0
2017-11-18T03:20:39.232Z,0
2017-11-18T03:21:49.429Z,0
2017-11-18T03:22:59.650Z,0
2017-11-18T03:24:09.677Z,0
2017-11-18T03:25:19.710Z,0
2017-11-18T03:26:29.940Z,0
2017-11-18T03:27:39.897Z,0
2017-11-18T03:28:50.137Z,0
2017-11-18T03:30:00.076Z,0
2017-11-18T03:31:10.607Z,0
2017-11-18T03:32:20.794Z,0
2017-11-18T03:33:31.009Z,0
2017-11-18T03:34:41.224Z,0
2017-11-18T03:35:51.465Z,0
2017-11-18T03:37:01.749Z,0
2017-11-18T03:38:11.756Z,0
2017-11-18T03:39:21.995Z,0
2017-11-18T03:40:32.554Z,0
2017-11-18T03:41:42.496Z,0
2017-11-18T03:42:52.790Z,0
2017-11-18T03:44:03.008Z,0
2017-11-18T03:45:12.683Z,0
2017-11-18T03:46:22.908Z,0
2017-11-18T03:47:33.246Z,0
2017-11-18T03:48:43.542Z,0
2017-11-18T03:49:53.746Z,0
2017-11-18T03:51:03.325Z,0
2017-11-18T03:52:13.825Z,0
2017-11-18T03:53:24.021Z,0
2017-11-18T03:54:34.082Z,0
2017-11-18T03:55:43.952Z,0
2017-11-18T03:56:54.383Z,0
2017-11-18T03:58:04.409Z,0
2017-11-18T03:59:14.606Z,0
2017-11-18T04:00:24.592Z,0
2017-11-18T04:01:34.845Z,0
2017-11-18T04:02:45.301Z,0
2017-11-18T04:03:55.511Z,0
2017-11-18T04:05:05.519Z,0
2017-11-18T04:06:15.221Z,0
2017-11-18T04:07:25.224Z,0
2017-11-18T04:08:35.436Z,0
2017-11-18T04:09:45.658Z,0
2017-11-18T04:10:55.907Z,0
2017-11-18T04:12:06.125Z,0
2017-11-18T04:13:15.578Z,0
2017-11-18T04:14:25.568Z,0
2017-11-18T04:15:35.818Z,0
2017-11-18T04:16:46.040Z,0
2017-11-18T04:17:56.237Z,0
2017-11-18T04:19:06.454Z,0
2017-11-18T04:20:16.663Z,0
2017-11-18T04:21:26.625Z,0
2017-11-18T04:22:36.842Z,0
2017-11-18T04:23:47.144Z,0
2017-11-18T04:24:57.430Z,0
2017-11-18T04:26:07.392Z,0
2017-11-18T04:27:17.622Z,0
2017-11-18T04:28:27.914Z,0
2017-11-18T04:29:37.620Z,0
2017-11-18T04:30:47.584Z,0
2017-11-18T04:31:57.800Z,0
2017-11-18T04:33:39.914Z,0
2017-11-18T04:34:50.125Z,0
2017-11-18T04:35:59.994Z,0
2017-11-18T04:37:10.293Z,0
2017-11-18T04:38:20.149Z,0
2017-11-18T04:39:30.389Z,0
2017-11-18T04:40:40.448Z,0
2017-11-18T04:41:50.427Z,0
2017-11-18T04:43:00.363Z,0
2017-11-18T04:44:10.609Z,0
2017-11-18T04:45:21.142Z,0
2017-11-18T04:46:31.357Z,0
2017-11-18T04:47:41.618Z,0
2017-11-18T04:48:52.076Z,0
2017-11-18T04:50:02.325Z,0
2017-11-18T04:51:12.316Z,0
2017-11-18T04:52:22.807Z,0
2017-11-18T04:53:33.019Z,0
2017-11-18T04:54:43.228Z,0
2017-11-18T04:55:53.516Z,0
2017-11-18T04:57:03.654Z,0
2017-11-18T04:58:13.920Z,0
2017-11-18T04:59:24.144Z,0
2017-11-18T05:00:34.391Z,0
2017-11-18T05:01:44.588Z,0
2017-11-18T05:02:54.802Z,0
2017-11-18T05:04:05.078Z,0
2017-11-18T05:05:14.773Z,0
2017-11-18T05:06:25.074Z,0
2017-11-18T05:07:35.020Z,0
2017-11-18T05:08:45.222Z,0
2017-11-18T05:09:55.224Z,0
2017-11-18T05:11:05.495Z,0
2017-11-18T05:12:15.759Z,0
2017-11-18T05:13:25.595Z,0
2017-11-18T05:14:35.565Z,0
2017-11-18T05:15:45.730Z,0
2017-11-18T05:16:56.020Z,0
2017-11-18T05:18:06.233Z,0
2017-11-18T05:19:16.267Z,0
2017-11-18T05:20:26.234Z,0
2017-11-18T05:21:36.200Z,0
2017-11-18T05:22:46.525Z,0
2017-11-18T05:23:56.382Z,0
2017-11-18T05:25:06.387Z,0
2017-11-18T05:26:16.701Z,0
2017-11-18T05:27:26.652Z,0
2017-11-18T05:28:36.601Z,0
2017-11-18T05:29:46.549Z,0
2017-11-18T05:30:56.498Z,0
2017-11-18T05:32:06.807Z,0
2017-11-18T05:33:17.029Z,0
2017-11-18T05:34:26.919Z,0
2017-11-18T05:35:37.164Z,0
2017-11-18T05:36:47.040Z,0
2017-11-18T05:37:56.990Z,0
2017-11-18T05:39:07.213Z,0
2017-11-18T05:40:16.897Z,0
2017-11-18T05:41:27.309Z,0
2017-11-18T05:42:37.346Z,0
2017-11-18T05:43:47.309Z,0
2017-11-18T05:44:57.277Z,0
2017-11-18T05:46:07.284Z,0
2017-11-18T05:47:17.477Z,0
2017-11-18T05:48:27.889Z,0
2017-11-18T05:49:38.096Z,0
2017-11-18T05:50:48.362Z,0
2017-11-18T05:51:58.653Z,0
2017-11-18T05:53:40.766Z,0
2017-11-18T05:54:50.985Z,0
2017-11-18T05:56:01.207Z,0
2017-11-18T05:57:11.432Z,0
2017-11-18T05:58:21.691Z,0
2017-11-18T05:59:31.912Z,0
2017-11-18T06:00:41.913Z,0
2017-11-18T06:01:52.174Z,0
2017-11-18T06:03:02.481Z,0
2017-11-18T06:04:12.687Z,0
2017-11-18T06:05:22.643Z,0
2017-11-18T06:06:33.090Z,0
2017-11-18T06:07:43.051Z,0
2017-11-18T06:08:53.292Z,0
2017-11-18T06:10:03.236Z,0
2017-11-18T06:11:13.207Z,0
2017-11-18T06:12:23.440Z,0
2017-11-18T06:13:33.423Z,0
2017-11-18T06:14:43.476Z,0
2017-11-18T06:15:53.918Z,0
2017-11-18T06:17:04.098Z,0
2017-11-18T06:18:13.852Z,0
2017-11-18T06:19:24.491Z,0
2017-11-18T06:20:34.738Z,0
2017-11-18T06:21:44.703Z,0
2017-11-18T06:22:54.685Z,0
2017-11-18T06:24:04.954Z,0
2017-11-18T06:25:15.167Z,0
2017-11-18T06:26:25.409Z,0
2017-11-18T06:27:35.258Z,0
2017-11-18T06:28:45.514Z,0
2017-11-18T06:29:55.747Z,0
2017-11-18T06:31:05.809Z,0
2017-11-18T06:32:16.046Z,0
2017-11-18T06:33:26.390Z,0
2017-11-18T06:34:36.637Z,0
2017-11-18T06:35:46.946Z,0
2017-11-18T06:36:57.175Z,0
2017-11-18T06:38:07.395Z,5
2017-11-18T06:39:17.382Z,5
2017-11-18T06:40:27.360Z,5
2017-11-18T06:41:37.299Z,5
2017-11-18T06:42:47.259Z,5
2017-11-18T06:43:57.509Z,5
2017-11-18T06:45:07.484Z,5
2017-11-18T06:46:17.768Z,5
2017-11-18T06:47:27.973Z,5
2017-11-18T06:48:37.823Z,10
2017-11-18T06:49:48.013Z,10
2017-11-18T06:50:58.236Z,10
2017-11-18T06:52:08.298Z,10
2017-11-18T06:53:18.522Z,10
2017-11-18T06:54:28.629Z,10
2017-11-18T06:55:38.598Z,10
2017-11-18T06:56:48.822Z,10
2017-11-18T06:57:59.070Z,10
2017-11-18T06:59:09.088Z,10
2017-11-18T07:00:19.546Z,15
2017-11-18T07:01:29.765Z,15
2017-11-18T07:02:40.258Z,15
2017-11-18T07:03:50.267Z,15
2017-11-18T07:05:00.500Z,20
2017-11-18T07:06:10.729Z,20
2017-11-18T07:07:21.179Z,20
2017-11-18T07:08:31.387Z,20
2017-11-18T07:09:41.635Z,20
2017-11-18T07:10:51.898Z,20
2017-11-18T07:12:02.133Z,20
2017-11-18T07:13:12.094Z,25
2017-11-18T07:14:22.098Z,30
2017-11-18T07:15:32.063Z,30
2017-11-18T07:16:42.318Z,30
2017-11-18T07:17:52.196Z,30
2017-11-18T07:19:02.493Z,35
2017-11-18T07:20:12.706Z,35
2017-11-18T07:21:22.965Z,35
2017-11-18T07:22:32.824Z,35
2017-11-18T07:23:42.840Z,35
2017-11-18T07:24:53.102Z,35
2017-11-18T07:26:03.337Z,40
2017-11-18T07:27:13.577Z,40
2017-11-18T07:28:23.838Z,40
2017-11-18T07:29:33.869Z,40
2017-11-18T07:30:44.205Z,40
2017-11-18T07:31:54.040Z,40
2017-11-18T07:33:04.279Z,45
2017-11-18T07:34:14.517Z,45
2017-11-18T07:35:24.722Z,50
2017-11-18T07:36:34.316Z,50
2017-11-18T07:37:44.338Z,55
2017-11-18T07:38:54.573Z,55
2017-11-18T07:40:04.580Z,55
2017-11-18T07:41:14.809Z,50
2017-11-18T07:42:25.031Z,55
2017-11-18T07:43:34.617Z,55
2017-11-18T07:44:44.882Z,50
2017-11-18T07:45:54.906Z,50
2017-11-18T07:47:05.137Z,55
2017-11-18T07:48:15.085Z,55
2017-11-18T07:49:25.111Z,55
2017-11-18T07:50:35.105Z,55
2017-11-18T07:51:45.636Z,55
2017-11-18T07:52:55.953Z,55
2017-11-18T07:54:06.123Z,55
2017-11-18T07:55:16.448Z,60
2017-11-18T07:56:26.661Z,55
2017-11-18T07:57:36.919Z,50
2017-11-18T07:58:47.169Z,55
2017-11-18T07:59:57.392Z,60
2017-11-18T08:01:07.321Z,60
2017-11-18T08:02:17.554Z,60
2017-11-18T08:03:27.788Z,60
2017-11-18T08:04:37.792Z,60
2017-11-18T08:05:47.643Z,60
2017-11-18T08:06:57.884Z,60
2017-11-18T08:08:08.264Z,60
2017-11-18T08:09:18.661Z,65
2017-11-18T08:10:28.880Z,65
2017-11-18T08:11:39.092Z,65
2017-11-18T08:12:49.592Z,60
2017-11-18T08:13:59.896Z,60
2017-11-18T08:15:10.239Z,60
2017-11-18T08:16:20.226Z,60
2017-11-18T08:17:30.587Z,55
2017-11-18T08:18:40.539Z,55
2017-11-18T08:19:50.767Z,55
2017-11-18T08:21:01.280Z,60
2017-11-18T08:22:11.534Z,55
2017-11-18T08:23:21.767Z,50
2017-11-18T08:24:31.996Z,60
2017-11-18T08:25:41.670Z,55
2017-11-18T08:26:52.237Z,55
2017-11-18T08:28:02.544Z,60
2017-11-18T08:29:12.779Z,60
2017-11-18T08:30:22.787Z,60
2017-11-18T08:31:33.035Z,60
2017-11-18T08:32:43.284Z,60
2017-11-18T08:33:53.502Z,70
2017-11-18T08:35:03.773Z,70
2017-11-18T08:36:13.772Z,65
2017-11-18T08:37:24.012Z,65
2017-11-18T08:38:33.856Z,60
2017-11-18T08:39:43.933Z,65
2017-11-18T08:40:54.157Z,75
2017-11-18T08:42:03.865Z,75
2017-11-18T08:43:13.821Z,65
2017-11-18T08:44:23.816Z,60
2017-11-18T08:45:33.795Z,75
2017-11-18T08:46:44.043Z,80
2017-11-18T08:47:54.271Z,80
2017-11-18T08:49:04.320Z,90
2017-11-18T08:50:14.586Z,90
2017-11-18T08:51:24.831Z,100
2017-11-18T08:52:35.052Z,105
2017-11-18T08:53:45.276Z,100
2017-11-18T08:54:55.618Z,100
2017-11-18T08:56:05.845Z,100
2017-11-18T08:57:15.816Z,100
2017-11-18T08:58:26.053Z,95
2017-11-18T08:59:35.998Z,90
2017-11-18T09:00:46.010Z,90
2017-11-18T09:01:56.276Z,85
2017-11-18T09:03:06.316Z,80
2017-11-18T09:04:16.616Z,80
2017-11-18T09:05:26.862Z,70
2017-11-18T09:06:37.124Z,70
2017-11-18T09:07:47.421Z,70
2017-11-18T09:08:57.670Z,70
2017-11-18T09:10:07.639Z,65
2017-11-18T09:11:17.240Z,65
2017-11-18T09:12:59.409Z,65
2017-11-18T09:14:09.648Z,65
2017-11-18T09:15:19.936Z,65
2017-11-18T09:16:30.267Z,65
2017-11-18T09:17:40.277Z,65
2017-11-18T09:18:50.192Z,65
2017-11-18T09:20:00.199Z,60
2017-11-18T09:21:10.170Z,60
2017-11-18T09:22:20.391Z,65
2017-11-18T09:23:29.984Z,65
2017-11-18T09:24:39.943Z,65
2017-11-18T09:25:49.930Z,65
2017-11-18T09:27:00.370Z,70
2017-11-18T09:28:10.709Z,75
2017-11-18T09:29:20.937Z,70
2017-11-18T09:30:31.201Z,75
2017-11-18T09:31:41.234Z,85
2017-11-18T09:32:51.212Z,85
2017-11-18T09:34:01.480Z,90
2017-11-18T09:35:11.712Z,95
2017-11-18T09:36:21.679Z,105
2017-11-18T09:37:31.609Z,100
2017-11-18T09:38:41.598Z,95
2017-11-18T09:39:51.212Z,105
2017-11-18T09:41:01.196Z,110
2017-11-18T09:42:11.518Z,105
2017-11-18T09:43:21.516Z,105
2017-11-18T09:44:32.016Z,105
2017-11-18T09:45:41.982Z,105
2017-11-18T09:46:52.487Z,120
2017-11-18T09:48:02.977Z,120
2017-11-18T09:49:13.477Z,105
2017-11-18T09:50:24.322Z,115
2017-11-18T09:51:34.637Z,115
2017-11-18T09:52:44.804Z,115
2017-11-18T09:53:55.219Z,120
2017-11-18T09:55:05.612Z,110
2017-11-18T09:56:15.821Z,100
2017-11-18T09:57:26.024Z,95
2017-11-18T09:58:36.171Z,100
2017-11-18T09:59:46.401Z,100
2017-11-18T10:00:56.657Z,90
2017-11-18T10:02:07.011Z,85
2017-11-18T10:03:17.667Z,90
2017-11-18T10:04:27.764Z,85
2017-11-18T10:05:38.026Z,80
2017-11-18T10:06:48.247Z,80
2017-11-18T10:07:58.404Z,90
2017-11-18T10:09:08.548Z,85
2017-11-18T10:10:18.965Z,95
2017-11-18T10:11:30.200Z,90
2017-11-18T10:12:42.387Z,80
2017-11-18T10:13:53.190Z,75
2017-11-18T10:15:04.183Z,75
2017-11-18T10:16:14.698Z,80
2017-11-18T10:17:25.001Z,75
2017-11-18T10:18:34.966Z,65
2017-11-18T10:19:45.227Z,65
2017-11-18T10:20:55.481Z,70
2017-11-18T10:22:05.910Z,80
2017-11-18T10:23:16.158Z,100
2017-11-18T10:24:26.462Z,100
2017-11-18T10:25:36.558Z,105
2017-11-18T10:26:46.468Z,110
2017-11-18T10:27:56.719Z,115
2017-11-18T10:29:07.086Z,105
2017-11-18T10:30:17.355Z,105
2017-11-18T10:31:27.381Z,100
2017-11-18T10:32:37.638Z,90
2017-11-18T10:33:47.888Z,75
2017-11-18T10:34:58.134Z,65
2017-11-18T10:36:08.170Z,70
2017-11-18T10:37:18.424Z,75
2017-11-18T10:38:28.325Z,60
2017-11-18T10:39:38.705Z,60
2017-11-18T10:40:48.980Z,60
2017-11-18T10:41:59.197Z,65
2017-11-18T10:43:09.453Z,80
2017-11-18T10:44:19.544Z,95
2017-11-18T10:45:29.516Z,100
2017-11-18T10:46:39.786Z,110
2017-11-18T10:47:50.080Z,110
2017-11-18T10:49:00.412Z,100
2017-11-18T10:50:10.678Z,110
2017-11-18T10:51:20.851Z,120
2017-11-18T10:52:30.779Z,130
2017-11-18T10:53:41.033Z,150
2017-11-18T10:54:51.288Z,165
2017-11-18T10:56:01.545Z,175
2017-11-18T10:57:11.775Z,170
2017-11-18T10:58:22.026Z,165
2017-11-18T10:59:32.059Z,185
2017-11-18T11:00:42.529Z,180
2017-11-18T11:01:52.471Z,205
2017-11-18T11:03:02.479Z,205
2017-11-18T11:04:12.456Z,190
2017-11-18T11:05:22.987Z,175
2017-11-18T11:06:33.252Z,170
2017-11-18T11:07:43.605Z,180
2017-11-18T11:08:53.950Z,170
2017-11-18T11:10:04.223Z,170
2017-11-18T11:11:14.117Z,175
2017-11-18T11:12:24.489Z,180
2017-11-18T11:13:34.733Z,175
2017-11-18T11:14:44.709Z,175
2017-11-18T11:15:54.698Z,175
2017-11-18T11:17:04.785Z,165
2017-11-18T11:18:15.070Z,165
2017-11-18T11:19:25.330Z,170
2017-11-18T11:20:35.291Z,175
2017-11-18T11:21:45.757Z,155
2017-11-18T11:22:55.840Z,160
2017-11-18T11:24:06.135Z,160
2017-11-18T11:25:16.422Z,150
2017-11-18T11:26:26.381Z,145
2017-11-18T11:27:36.678Z,140
2017-11-18T11:28:46.948Z,140
2017-11-18T11:29:57.305Z,135
2017-11-18T11:31:07.282Z,145
2017-11-18T11:32:17.353Z,160
2017-11-18T11:33:27.357Z,160
2017-11-18T11:34:37.872Z,160
2017-11-18T11:35:48.130Z,170
2017-11-18T11:36:58.380Z,165
2017-11-18T11:38:08.612Z,140
2017-11-18T11:39:19.020Z,140
2017-11-18T11:40:29.356Z,150
2017-11-18T11:41:39.449Z,150
2017-11-18T11:42:49.420Z,160
2017-11-18T11:43:59.651Z,165
2017-11-18T11:45:09.763Z,155
2017-11-18T11:46:20.450Z,155
2017-11-18T11:47:30.774Z,180
2017-11-18T11:48:41.005Z,195
2017-11-18T11:49:51.233Z,260
2017-11-18T11:51:01.189Z,280
2017-11-18T11:52:11.197Z,285
2017-11-18T11:53:21.440Z,280
2017-11-18T11:54:31.722Z,270
2017-11-18T11:55:42.225Z,280
2017-11-18T11:56:51.949Z,260
2017-11-18T11:58:01.910Z,270
2017-11-18T11:59:11.895Z,700
2017-11-18T12:00:21.815Z,1000
2017-11-18T12:01:31.802Z,720
2017-11-18T12:02:41.767Z,410
2017-11-18T12:03:52.040Z,435
2017-11-18T12:05:02.010Z,405
2017-11-18T12:06:12.369Z,390
2017-11-18T12:07:22.635Z,370
2017-11-18T12:08:32.900Z,330
2017-11-18T12:09:43.120Z,280
2017-11-18T12:10:53.107Z,235
2017-11-18T12:12:03.371Z,220
2017-11-18T12:13:13.046Z,225
2017-11-18T12:14:23.292Z,225
2017-11-18T12:15:33.594Z,250
2017-11-18T12:16:43.826Z,280
2017-11-18T12:17:54.084Z,285
2017-11-18T12:19:04.332Z,260
2017-11-18T12:20:14.393Z,230
2017-11-18T12:21:24.666Z,225
2017-11-18T12:22:34.956Z,240
2017-11-18T12:23:44.942Z,255
2017-11-18T12:24:54.922Z,255
2017-11-18T12:26:05.149Z,245
2017-11-18T12:27:15.259Z,255
2017-11-18T12:28:25.122Z,270
2017-11-18T12:29:35.400Z,315
2017-11-18T12:30:45.480Z,375
2017-11-18T12:31:55.467Z,400
2017-11-18T12:33:05.753Z,390
2017-11-18T12:34:16.082Z,375
2017-11-18T12:35:26.231Z,375
2017-11-18T12:36:36.724Z,365
2017-11-18T12:37:46.737Z,335
2017-11-18T12:38:56.885Z,375
2017-11-18T12:40:06.611Z,420
2017-11-18T12:41:16.956Z,395
2017-11-18T12:42:27.021Z,315
2017-11-18T12:43:37.081Z,245
2017-11-18T12:44:47.388Z,205
2017-11-18T12:45:56.737Z,190
2017-11-18T12:47:07.013Z,175
2017-11-18T12:48:17.269Z,185
2017-11-18T12:49:27.672Z,185
2017-11-18T12:50:37.950Z,195
2017-11-18T12:51:48.179Z,205
2017-11-18T12:52:58.406Z,215
2017-11-18T12:54:08.426Z,205
2017-11-18T12:55:18.170Z,180
2017-11-18T12:56:28.258Z,155
2017-11-18T12:57:38.303Z,155
2017-11-18T12:58:48.567Z,160
2017-11-18T12:59:58.636Z,160
2017-11-18T13:01:08.663Z,170
2017-11-18T13:02:18.675Z,175
2017-11-18T13:03:28.963Z,190
2017-11-18T13:04:39.463Z,195
2017-11-18T13:05:49.761Z,185
2017-11-18T13:06:59.604Z,190
2017-11-18T13:08:09.876Z,190
2017-11-18T13:09:20.172Z,160
2017-11-18T13:10:30.379Z,150
2017-11-18T13:11:40.279Z,145
2017-11-18T13:12:50.630Z,140
2017-11-18T13:14:01.188Z,135
2017-11-18T13:15:11.230Z,115
2017-11-18T13:16:21.539Z,95
2017-11-18T13:17:32.105Z,95
2017-11-18T13:18:42.590Z,95
2017-11-18T13:19:52.842Z,100
2017-11-18T13:21:03.084Z,105
2017-11-18T13:22:13.363Z,110
2017-11-18T13:23:23.359Z,130
2017-11-18T13:24:33.239Z,155
2017-11-18T13:25:43.486Z,150
2017-11-18T13:26:53.454Z,150
2017-11-18T13:28:03.754Z,125
2017-11-18T13:29:14.058Z,110
2017-11-18T13:30:23.795Z,115
2017-11-18T13:31:33.818Z,120
2017-11-18T13:32:44.069Z,100
2017-11-18T13:33:54.026Z,90
2017-11-18T13:35:04.292Z,85
2017-11-18T13:36:14.569Z,80
2017-11-18T13:37:24.690Z,60
2017-11-18T13:38:35.118Z,55
2017-11-18T13:39:45.249Z,55
2017-11-18T13:40:55.462Z,60
2017-11-18T13:42:05.700Z,60
2017-11-18T13:43:15.768Z,60
2017-11-18T13:44:26.020Z,60
2017-11-18T13:45:36.292Z,65
2017-11-18T13:46:46.533Z,65
2017-11-18T13:47:56.804Z,60
2017-11-18T13:49:07.101Z,60
2017-11-18T13:50:17.350Z,50
2017-11-18T13:51:27.140Z,55
2017-11-18T13:52:37.409Z,50
2017-11-18T13:53:47.483Z,40
2017-11-18T13:54:57.291Z,35
2017-11-18T13:56:07.577Z,35
2017-11-18T13:57:17.889Z,45
2017-11-18T13:58:28.332Z,50
2017-11-18T13:59:38.444Z,55
2017-11-18T14:00:48.467Z,65
2017-11-18T14:01:58.817Z,75
2017-11-18T14:03:08.753Z,90
2017-11-18T14:04:19.011Z,90
2017-11-18T14:05:29.291Z,80
2017-11-18T14:06:39.650Z,75
2017-11-18T14:07:49.926Z,65
2017-11-18T14:09:00.312Z,60
2017-11-18T14:10:10.568Z,50
2017-11-18T14:11:20.211Z,45
2017-11-18T14:12:30.445Z,50
2017-11-18T14:13:40.676Z,50
2017-11-18T14:14:50.752Z,50
2017-11-18T14:16:01.066Z,40
2017-11-18T14:17:11.368Z,40
2017-11-18T14:18:21.644Z,45
2017-11-18T14:19:31.866Z,40
2017-11-18T14:20:42.095Z,40
2017-11-18T14:21:52.099Z,40
2017-11-18T14:23:02.357Z,40
2017-11-18T14:24:12.603Z,40
2017-11-18T14:25:22.483Z,35
2017-11-18T14:26:32.735Z,35
2017-11-18T14:27:42.487Z,30
2017-11-18T14:28:52.733Z,25
2017-11-18T14:30:02.943Z,25
2017-11-18T14:31:13.364Z,25
2017-11-18T14:32:23.725Z,25
2017-11-18T14:33:33.747Z,25
2017-11-18T14:34:44.023Z,20
2017-11-18T14:35:54.348Z,15
2017-11-18T14:37:04.706Z,15
2017-11-18T14:38:14.780Z,15
2017-11-18T14:39:24.505Z,15
2017-11-18T14:40:34.495Z,10
2017-11-18T14:41:44.728Z,15
2017-11-18T14:42:55.089Z,15
2017-11-18T14:44:05.361Z,15
2017-11-18T14:45:15.355Z,10
2017-11-18T14:46:25.638Z,10
2017-11-18T14:47:35.815Z,10
2017-11-18T14:48:46.050Z,5
2017-11-18T14:49:56.294Z,5
2017-11-18T14:51:06.532Z,5
2017-11-18T14:52:16.884Z,5
2017-11-18T14:53:27.141Z,5
2017-11-18T14:54:37.136Z,5
2017-11-18T14:55:47.416Z,5
2017-11-18T14:56:57.154Z,5
2017-11-18T14:58:07.475Z,5
2017-11-18T14:59:17.726Z,5
2017-11-18T15:00:27.868Z,5
2017-11-18T15:01:38.420Z,5
2017-11-18T15:02:48.636Z,5
2017-11-18T15:03:58.958Z,0
2017-11-18T15:05:09.321Z,5
2017-11-18T15:06:18.672Z,0
2017-11-18T15:07:28.965Z,0
2017-11-18T15:08:40.166Z,5
2017-11-18T15:09:51.363Z,0
2017-11-18T15:11:01.611Z,0
2017-11-18T15:12:11.635Z,0
2017-11-18T15:13:21.893Z,0
2017-11-18T15:14:32.175Z,0
2017-11-18T15:15:42.444Z,0
2017-11-18T15:16:52.691Z,0
2017-11-18T15:18:03.014Z,0
2017-11-18T15:19:12.987Z,0
2017-11-18T15:20:23.033Z,0
2017-11-18T15:21:33.583Z,0
2017-11-18T15:22:43.879Z,0
2017-11-18T15:23:53.885Z,0
2017-11-18T15:25:04.211Z,0
2017-11-18T15:26:14.459Z,0
2017-11-18T15:27:24.698Z,0
2017-11-18T15:28:34.935Z,0
2017-11-18T15:29:45.201Z,0
2017-11-18T15:30:55.446Z,0
2017-11-18T15:32:05.087Z,0
2017-11-18T15:33:15.134Z,0
2017-11-18T15:34:25.178Z,0
2017-11-18T15:35:35.208Z,0
2017-11-18T15:36:45.468Z,0
2017-11-18T15:37:55.743Z,0
2017-11-18T15:39:05.964Z,0
2017-11-18T15:40:16.250Z,0
2017-11-18T15:41:26.509Z,0
2017-11-18T15:42:36.753Z,0
2017-11-18T15:43:47.046Z,0
2017-11-18T15:44:57.363Z,0
2017-11-18T15:46:07.407Z,0
2017-11-18T15:47:17.659Z,0
2017-11-18T15:48:28.027Z,0
2017-11-18T15:49:38.338Z,0
2017-11-18T15:50:48.638Z,0
2017-11-18T15:51:58.776Z,0
2017-11-18T15:53:08.439Z,0
2017-11-18T15:54:18.410Z,0
2017-11-18T15:55:28.020Z,0
2017-11-18T15:56:38.292Z,0
2017-11-18T15:57:48.378Z,0
2017-11-18T15:58:58.625Z,0
2017-11-18T16:00:08.862Z,0
2017-11-18T16:01:18.837Z,0
2017-11-18T16:02:28.827Z,0
2017-11-18T16:03:39.079Z,0
2017-11-18T16:04:49.346Z,0
2017-11-18T16:05:59.595Z,0
2017-11-18T16:07:09.863Z,0
2017-11-18T16:08:20.111Z,0
2017-11-18T16:09:30.356Z,0
2017-11-18T16:10:40.605Z,0
2017-11-18T16:11:50.829Z,0
2017-11-18T16:13:01.058Z,0
2017-11-18T16:14:11.274Z,0
2017-11-18T16:15:21.633Z,0
2017-11-18T16:16:31.502Z,0
2017-11-18T16:17:41.731Z,0
2017-11-18T16:18:51.713Z,0
2017-11-18T16:20:02.060Z,0
2017-11-18T16:21:12.097Z,0
2017-11-18T16:22:22.357Z,0
2017-11-18T16:23:32.600Z,0
2017-11-18T16:24:42.858Z,0
2017-11-18T16:25:52.720Z,0
2017-11-18T16:27:03.014Z,0
2017-11-18T16:28:13.011Z,0
2017-11-18T16:29:23.414Z,0
2017-11-18T16:30:33.687Z,0
2017-11-18T16:31:43.973Z,0
2017-11-18T16:32:54.220Z,0
2017-11-18T16:34:04.472Z,0
2017-11-18T16:35:14.737Z,0
2017-11-18T16:36:24.791Z,0
2017-11-18T16:37:35.089Z,0
2017-11-18T16:38:44.963Z,0
2017-11-18T16:39:56.183Z,0
2017-11-18T16:41:06.478Z,0
2017-11-18T16:42:16.723Z,0
2017-11-18T16:43:26.996Z,0
2017-11-18T16:44:37.276Z,0
2017-11-18T16:45:47.634Z,0
2017-11-18T16:46:57.892Z,0
2017-11-18T16:48:08.146Z,0
2017-11-18T16:49:17.857Z,0
2017-11-18T16:50:27.806Z,0
2017-11-18T16:51:38.128Z,0
2017-11-18T16:52:48.372Z,0
2017-11-18T16:53:58.354Z,0